createdAt,value
2019-02-28T00:02:26.931Z,100162.38
2019-02-28T00:07:31.835Z,100156.51
2019-02-28T00:12:36.838Z,100138.20
2019-02-28T00:17:43.562Z,100120.21
2019-02-28T00:22:49.440Z,100099.03
2019-02-28T00:27:54.484Z,100096.38
2019-02-28T00:32:59.977Z,100092.67
2019-02-28T00:38:05.081Z,100094.05
2019-02-28T00:43:10.066Z,100093.03
2019-02-28T00:48:15.071Z,100087.86
2019-02-28T00:53:20.080Z,100074.63
2019-02-28T00:58:28.675Z,100079.17
2019-02-28T01:03:31.774Z,100085.77
2019-02-28T01:08:36.835Z,100070.91
2019-02-28T01:13:41.826Z,100060.08
2019-02-28T01:18:47.004Z,100062.22
2019-02-28T01:23:51.972Z,100054.80
2019-02-28T01:29:01.357Z,100053.05
2019-02-28T01:34:03.804Z,100041.95
2019-02-28T01:39:09.067Z,100036.95
2019-02-28T01:44:14.526Z,100031.09
2019-02-28T01:49:19.522Z,100024.14
2019-02-28T01:54:25.134Z,100020.95
2019-02-28T01:59:31.262Z,100012.11
2019-02-28T02:04:36.595Z,100004.45
2019-02-28T02:09:42.729Z,99993.84
2019-02-28T02:14:48.640Z,99990.13
2019-02-28T02:19:53.626Z,99979.56
2019-02-28T02:24:59.306Z,99978.51
2019-02-28T02:30:13.670Z,99974.62
2019-02-28T02:35:12.982Z,99967.80
2019-02-28T02:40:23.007Z,99958.00
2019-02-28T02:45:25.618Z,99962.51
2019-02-28T02:50:35.922Z,99949.54
2019-02-28T02:55:37.499Z,99948.45
2019-02-28T03:00:49.543Z,99943.15
2019-02-28T03:05:51.103Z,99940.02
2019-02-28T03:10:56.265Z,99928.34
2019-02-28T03:16:01.269Z,99921.49
2019-02-28T03:21:06.654Z,99909.00
2019-02-28T03:26:11.782Z,99888.44
2019-02-28T03:31:16.723Z,99890.53
2019-02-28T03:36:21.766Z,99893.50
2019-02-28T03:41:26.735Z,99887.96
2019-02-28T03:46:31.705Z,99879.20
2019-02-28T03:51:36.711Z,99881.30
2019-02-28T03:56:41.735Z,99876.81
2019-02-28T04:01:46.840Z,99877.27
2019-02-28T04:06:52.382Z,99874.33
2019-02-28T04:11:57.354Z,99875.09
2019-02-28T04:17:02.354Z,99872.44
2019-02-28T04:22:08.476Z,99874.33
2019-02-28T04:27:13.499Z,99861.93
2019-02-28T04:32:18.483Z,99858.78
2019-02-28T04:37:23.499Z,99853.52
2019-02-28T04:42:28.470Z,99846.13
2019-02-28T04:47:33.490Z,99838.73
2019-02-28T04:52:38.444Z,99841.36
2019-02-28T04:57:45.857Z,99845.03
2019-02-28T05:02:53.996Z,99836.03
2019-02-28T05:07:57.560Z,99824.70
2019-02-28T05:13:02.570Z,99830.50
2019-02-28T05:18:07.516Z,99829.20
2019-02-28T05:23:12.555Z,99823.94
2019-02-28T05:28:17.566Z,99815.58
2019-02-28T05:33:22.643Z,99818.75
2019-02-28T05:38:28.719Z,99823.58
2019-02-28T05:43:33.727Z,99822.52
2019-02-28T05:48:39.689Z,99807.17
2019-02-28T05:53:44.702Z,99811.75
2019-02-28T05:58:52.566Z,99813.89
2019-02-28T06:03:56.449Z,99815.72
2019-02-28T06:09:01.428Z,99819.44
2019-02-28T06:14:08.386Z,99808.36
2019-02-28T06:19:15.483Z,99797.80
2019-02-28T06:24:20.488Z,99804.69
2019-02-28T06:29:25.533Z,99814.15
2019-02-28T06:34:30.624Z,99804.16
2019-02-28T06:39:37.534Z,99818.66
2019-02-28T06:44:42.556Z,99803.58
2019-02-28T06:49:47.746Z,99810.16
2019-02-28T06:54:54.328Z,99814.94
2019-02-28T06:59:59.535Z,99825.48
2019-02-28T07:05:04.702Z,99834.14
2019-02-28T07:10:12.645Z,99834.41
2019-02-28T07:15:23.690Z,99840.72
2019-02-28T07:20:24.931Z,99827.44
2019-02-28T07:25:33.079Z,99831.39
2019-02-28T07:30:41.118Z,99822.59
2019-02-28T07:35:46.864Z,99828.28
2019-02-28T07:40:52.148Z,99830.61
2019-02-28T07:45:57.238Z,99824.70
2019-02-28T07:51:02.897Z,99816.03
2019-02-28T07:56:11.648Z,99817.63
2019-02-28T08:01:21.140Z,99818.36
2019-02-28T08:06:26.382Z,99819.31
2019-02-28T08:11:33.471Z,99809.61
2019-02-28T08:16:39.124Z,99804.47
2019-02-28T08:21:49.388Z,99799.05
2019-02-28T08:26:53.654Z,99804.60
2019-02-28T08:31:58.339Z,99800.30
2019-02-28T08:37:03.798Z,99802.04
2019-02-28T08:42:08.925Z,99796.56
2019-02-28T08:47:55.451Z,99787.78
2019-02-28T08:53:05.560Z,99783.72
2019-02-28T08:58:12.393Z,99784.71
2019-02-28T09:03:17.862Z,99785.09
2019-02-28T09:08:25.338Z,99786.50
2019-02-28T09:13:30.854Z,99779.44
2019-02-28T09:18:35.994Z,99790.69
2019-02-28T09:23:41.153Z,99784.38
2019-02-28T09:28:47.500Z,99780.91
2019-02-28T09:33:55.433Z,99785.53
2019-02-28T09:39:00.381Z,99783.81
2019-02-28T09:44:07.108Z,99785.58
2019-02-28T09:49:12.945Z,99786.42
2019-02-28T09:54:16.998Z,99784.11
2019-02-28T09:59:20.840Z,99790.65
2019-02-28T10:04:27.305Z,99797.59
2019-02-28T10:09:30.599Z,99793.31
2019-02-28T10:14:34.980Z,99805.23
2019-02-28T10:19:45.488Z,99806.12
2019-02-28T10:24:44.716Z,99798.62
2019-02-28T10:29:48.545Z,99796.06
2019-02-28T10:34:52.493Z,99810.78
2019-02-28T10:39:56.807Z,99806.16
2019-02-28T10:45:03.670Z,99789.13
2019-02-28T10:50:07.744Z,99795.34
2019-02-28T10:55:12.036Z,99797.13
2019-02-28T11:00:20.310Z,99803.23
2019-02-28T11:05:27.443Z,99794.56
2019-02-28T11:10:36.846Z,99784.94
2019-02-28T11:15:41.230Z,99782.59
2019-02-28T11:20:45.211Z,99773.30
2019-02-28T11:25:49.668Z,99772.90
2019-02-28T11:30:53.588Z,99765.34
2019-02-28T11:35:59.149Z,99760.31
2019-02-28T11:41:03.298Z,99767.02
2019-02-28T11:46:07.612Z,99754.08
2019-02-28T11:51:11.564Z,99763.47
2019-02-28T11:56:15.481Z,99761.59
2019-02-28T12:01:19.353Z,99747.30
2019-02-28T12:06:25.732Z,99742.41
2019-02-28T12:11:28.981Z,99754.79
2019-02-28T12:16:32.904Z,99746.80
2019-02-28T12:21:38.112Z,99750.17
2019-02-28T12:26:42.538Z,99743.92
2019-02-28T12:31:46.403Z,99739.64
2019-02-28T12:36:50.854Z,99737.83
2019-02-28T12:41:59.545Z,99740.25
2019-02-28T12:47:03.356Z,99741.70
2019-02-28T12:52:07.480Z,99736.91
2019-02-28T12:57:11.466Z,99742.08
2019-02-28T13:02:15.509Z,99739.07
2019-02-28T13:07:20.376Z,99727.58
2019-02-28T13:12:25.392Z,99729.88
2019-02-28T13:17:31.691Z,99713.32
2019-02-28T13:22:37.439Z,99711.03
2019-02-28T13:27:45.200Z,99709.78
2019-02-28T13:32:49.177Z,99704.80
2019-02-28T13:37:54.369Z,99697.09
2019-02-28T13:43:01.670Z,99687.44
2019-02-28T13:48:06.384Z,99687.14
2019-02-28T13:53:18.973Z,99691.67
2019-02-28T13:58:21.541Z,99691.19
2019-02-28T14:03:25.863Z,99684.32
2019-02-28T14:08:31.304Z,99695.11
2019-02-28T14:13:36.362Z,99681.47
2019-02-28T14:18:42.581Z,99682.53
2019-02-28T14:23:47.091Z,99681.45
2019-02-28T14:28:53.017Z,99682.27
2019-02-28T14:33:57.412Z,99690.22
2019-02-28T14:39:01.358Z,99705.98
2019-02-28T14:44:06.931Z,99710.08
2019-02-28T14:49:12.597Z,99699.31
2019-02-28T14:54:16.484Z,99697.41
2019-02-28T14:59:20.422Z,99698.42
2019-02-28T15:04:24.344Z,99715.58
2019-02-28T15:09:29.836Z,99700.48
2019-02-28T15:14:34.190Z,99711.58
2019-02-28T15:19:38.148Z,99716.47
2019-02-28T15:24:43.798Z,99700.44
2019-02-28T15:29:47.576Z,99702.87
2019-02-28T15:34:51.434Z,99695.25
2019-02-28T15:39:55.556Z,99696.19
2019-02-28T15:45:00.427Z,99700.28
2019-02-28T15:50:05.460Z,99694.49
2019-02-28T15:55:09.357Z,99687.89
2019-02-28T16:00:14.403Z,99687.05
2019-02-28T16:05:18.643Z,99688.84
2019-02-28T16:10:23.406Z,99703.19
2019-02-28T16:15:27.343Z,99704.92
2019-02-28T16:20:31.806Z,99700.72
2019-02-28T16:25:36.720Z,99708.02
2019-02-28T16:30:40.728Z,99708.41
2019-02-28T16:35:51.416Z,99711.92
2019-02-28T16:40:57.674Z,99707.99
2019-02-28T16:46:01.278Z,99692.06
2019-02-28T16:51:05.537Z,99703.22
2019-02-28T16:56:09.522Z,99706.55
2019-02-28T17:01:13.482Z,99714.28
2019-02-28T17:06:17.467Z,99720.83
2019-02-28T17:11:21.398Z,99713.87
2019-02-28T17:16:33.766Z,99719.58
2019-02-28T17:21:38.922Z,99728.25
2019-02-28T17:27:02.368Z,99732.81
2019-02-28T17:32:07.950Z,99728.07
2019-02-28T17:37:11.935Z,99730.73
2019-02-28T17:42:15.965Z,99724.73
2019-02-28T17:47:25.653Z,99730.24
2019-02-28T17:52:33.845Z,99737.67
2019-02-28T17:57:45.361Z,99739.62
2019-02-28T18:03:09.756Z,99741.13
2019-02-28T18:08:21.454Z,99737.31
2019-02-28T18:13:35.190Z,99741.42
2019-02-28T18:18:57.047Z,99750.60
2019-02-28T18:24:26.320Z,99749.94
2019-02-28T18:29:48.258Z,99763.92
2019-02-28T18:34:52.721Z,99755.59
2019-02-28T18:40:03.434Z,99749.86
2019-02-28T18:45:10.301Z,99745.48
2019-02-28T18:50:16.941Z,99746.20
2019-02-28T18:55:22.591Z,99743.27
2019-02-28T19:00:27.786Z,99752.18
2019-02-28T19:05:33.175Z,99753.62
2019-02-28T19:10:38.674Z,99755.72
2019-02-28T19:15:45.218Z,99745.55
2019-02-28T19:20:50.451Z,99755.66
2019-02-28T19:25:56.604Z,99760.58
2019-02-28T19:31:02.296Z,99766.82
2019-02-28T19:36:07.388Z,99764.63
2019-02-28T19:41:12.763Z,99764.30
2019-02-28T19:46:17.988Z,99773.92
2019-02-28T19:51:23.377Z,99779.30
2019-02-28T19:56:28.574Z,99779.98
2019-02-28T20:01:33.808Z,99777.08
2019-02-28T20:06:38.798Z,99783.36
2019-02-28T20:11:43.832Z,99783.58
2019-02-28T20:16:50.173Z,99787.00
2019-02-28T20:21:56.924Z,99785.55
2019-02-28T20:27:02.044Z,99775.70
2019-02-28T20:32:07.172Z,99781.66
2019-02-28T20:37:12.506Z,99785.39
2019-02-28T20:42:19.562Z,99775.36
2019-02-28T20:47:24.901Z,99774.28
2019-02-28T20:52:30.008Z,99767.89
2019-02-28T20:57:35.171Z,99758.81
2019-02-28T21:02:40.313Z,99741.23
2019-02-28T21:07:45.552Z,99751.76
2019-02-28T21:12:50.870Z,99759.26
2019-02-28T21:17:56.078Z,99767.01
2019-02-28T21:23:01.151Z,99775.97
2019-02-28T21:28:06.481Z,99777.90
2019-02-28T21:33:11.712Z,99788.27
2019-02-28T21:38:17.813Z,99779.02
2019-02-28T21:43:23.249Z,99782.69
2019-02-28T21:48:28.410Z,99793.11
2019-02-28T21:53:33.766Z,99789.42
2019-02-28T21:58:38.800Z,99788.66
2019-02-28T22:03:43.837Z,99788.61
2019-02-28T22:08:48.857Z,99775.84
2019-02-28T22:13:53.900Z,99775.88
2019-02-28T22:18:58.972Z,99780.16
2019-02-28T22:24:04.067Z,99780.20
2019-02-28T22:29:10.687Z,99774.30
2019-02-28T22:34:36.364Z,99778.14
2019-02-28T22:39:41.343Z,99774.38
2019-02-28T22:44:46.398Z,99767.95
2019-02-28T22:49:51.485Z,99765.05
2019-02-28T22:54:56.447Z,99760.53
2019-02-28T23:00:02.104Z,99758.11
2019-02-28T23:05:08.790Z,99745.59
2019-02-28T23:10:13.811Z,99744.99
2019-02-28T23:15:19.636Z,99740.48
2019-02-28T23:20:26.468Z,99745.84
2019-02-28T23:25:31.467Z,99746.91
2019-02-28T23:30:47.013Z,99733.93
2019-02-28T23:35:52.175Z,99723.35
2019-02-28T23:40:57.769Z,99719.50
2019-02-28T23:46:02.803Z,99718.04
2019-02-28T23:51:07.831Z,99707.06
2019-02-28T23:56:12.829Z,99696.87
